Pocatello Regional Airport
KPIH : now visible

Airfield :











YOU CAN JOIN US ON...

 
LOGIN :

Register | Disclaimer

   EN    FR    IT 

 









Legend :    VFR   Marginal VFR   IFR   Intensive IFR   Very Intensive IFR
Visi :
Ceiling :
>= 8 km
>= 3000ft
5 to 8 km
1000 to 3000 ft
1500m to 5 km
500 to 1000 ft
800 to 1500m
200 to 500 ft
< 800m
< 200 ft
Symbols :   Thunderstorms  Fog  Heavy snow  Heavy precipitations  Wind > 20 kt






- Airport Elevation : 4452 ft
- IATA code : PIH


KPIH - Pocatello Regional

CURRENT METAR :
  • 081153Z AUTO 14007KT 10SM CLR M04/M06 A2990 RMK AO2 SLP130 T10441056 11006 21044 58019 $

EXPIRED METARs :
  • 081053Z AUTO 23003KT 10SM CLR M03/M06 A2992 RMK AO2 SLP134 T10331056 $
  • 080953Z AUTO 00000KT 10SM CLR M02/M04 A2994 RMK AO2 SLP140 T10171039 $

TAF KPIH
Valid from the 08 at 12:00 until the 09 at 12:00 UTC


081140Z 0812/0912 VRB03KT P6SM FEW100 WS020/04035KT
FM081700 23015G25KT P6SM FEW140 FEW200
FM081900 19025G35KT P6SM SCT080 SCT200
FM082200 24020G30KT P6SM BKN080 BKN200
FM090000 27015G25KT P6SM BKN060 BKN120 OVC200
FM090300 30015KT P6SM VCSH BKN070 OVC120
KZLC FIR / North America



MET'MAP, your aeronautical weather chart ! - Copyright ORBIFLY December 2007 - Disclaimer

ORBIFLY MET'MAP TEAM :

Programming & Development : Alexandra Zaïnal
Concept & original design : Baudouin d'Aumeries
Assistance for programming : Marc-Olivier Méhu
Technical & hardware support : Manuel Goepfert

Contact : metmap@orbifly.com




SOURCES & CREDITS :

   NOAA       Earth
Advisory